EGPS weather

Peterhead Heliport
Peterhead, Scotland, United Kingdom

Public forecast

Using degrees Celsius for public forecast. Weather courtesy of forecast.io.

METAR (pilot weather report)

Closest report is Aberdeen Dyce Airport, 21.9 nm (40.5 km) SSW. Retrieved 2019/05/27 00:20 UTC (38 minutes ago):

EGPD 270020Z AUTO 30010KT 9999 BKN017 10/07 Q0999

TAF (pilot weather forecast)

Forecast is more than 12 hours old.

Closest forecast is Aberdeen Dyce Airport, 21.9 nm (40.5 km) SSW. Retrieved 2019/05/26 00:00 UTC (1 day ago):

TAF EGPD 262301Z 2700/2724 26005KT 9999 SCT016 BKN035 BECMG 2700/2702 35010KT TEMPO 2700/2703 36020G32KT 2000 +RADZ BKN004 TEMPO 2703/2706 4000 RADZ BKN012 PROB30 TEMPO 2706/2724 5000 SHRA